createdAt,value
2022-12-15T00:02:15.549Z,11.10
2022-12-15T00:05:00.669Z,11.45
2022-12-15T00:07:45.869Z,11.00
2022-12-15T00:10:31.134Z,10.00
2022-12-15T00:13:16.222Z,10.45
2022-12-15T00:16:01.134Z,11.43
2022-12-15T00:18:46.435Z,11.50
2022-12-15T00:21:31.917Z,11.10
2022-12-15T00:24:17.661Z,12.05
2022-12-15T00:27:02.865Z,11.23
2022-12-15T00:29:49.469Z,10.90
2022-12-15T00:32:34.360Z,10.60
2022-12-15T00:35:19.421Z,10.75
2022-12-15T00:38:04.492Z,11.80
2022-12-15T00:40:31.070Z,11.27
2022-12-15T00:42:57.550Z,10.60
2022-12-15T00:45:43.941Z,11.05
2022-12-15T00:48:10.539Z,11.10
2022-12-15T00:50:52.488Z,11.32
2022-12-15T00:53:41.955Z,11.65
2022-12-15T00:56:27.923Z,11.93
2022-12-15T00:59:13.925Z,10.77
2022-12-15T01:01:59.239Z,11.43
2022-12-15T01:04:44.304Z,11.40
2022-12-15T01:07:29.186Z,11.60
2022-12-15T01:10:14.702Z,11.38
2022-12-15T01:12:59.900Z,11.18
2022-12-15T01:15:45.194Z,11.15
2022-12-15T01:18:30.898Z,10.80
2022-12-15T01:20:59.661Z,11.75
2022-12-15T01:23:26.291Z,11.85
2022-12-15T01:25:54.407Z,11.93
2022-12-15T01:28:22.058Z,11.57
2022-12-15T01:30:49.581Z,12.23
2022-12-15T01:33:17.716Z,12.05
2022-12-15T01:35:44.453Z,12.40
2022-12-15T01:38:11.248Z,13.38
2022-12-15T01:40:47.190Z,11.18
2022-12-15T01:43:19.763Z,12.65
2022-12-15T01:46:00.706Z,11.48
2022-12-15T01:48:35.787Z,11.88
2022-12-15T01:51:15.206Z,12.43
2022-12-15T01:53:50.654Z,12.98
2022-12-15T01:56:18.904Z,13.40
2022-12-15T01:58:50.308Z,13.57
2022-12-15T02:01:17.117Z,12.55
2022-12-15T02:03:44.862Z,13.18
2022-12-15T02:06:13.092Z,13.40
2022-12-15T02:08:43.188Z,13.80
2022-12-15T02:11:40.715Z,12.45
2022-12-15T02:14:10.052Z,12.93
2022-12-15T02:17:01.414Z,13.70
2022-12-15T02:19:46.553Z,12.75
2022-12-15T02:22:42.255Z,12.70
2022-12-15T02:25:46.665Z,13.65
2022-12-15T02:28:46.492Z,12.57
2022-12-15T02:31:41.584Z,12.85
2022-12-15T02:34:17.444Z,12.52
2022-12-15T02:36:49.278Z,14.40
2022-12-15T02:39:18.411Z,13.55
2022-12-15T02:41:46.950Z,12.45
2022-12-15T02:44:29.561Z,12.18
2022-12-15T02:47:05.084Z,13.90
2022-12-15T02:49:46.010Z,12.95
2022-12-15T02:52:53.917Z,12.95
2022-12-15T02:55:43.826Z,12.93
2022-12-15T02:58:20.757Z,14.93
2022-12-15T03:00:55.522Z,14.93
2022-12-15T03:03:23.254Z,13.90
2022-12-15T03:05:55.062Z,14.20
2022-12-15T03:08:22.278Z,14.35
2022-12-15T03:10:52.594Z,13.82
2022-12-15T03:13:22.498Z,13.10
2022-12-15T03:15:49.652Z,14.35
2022-12-15T03:18:16.327Z,12.77
2022-12-15T03:20:42.764Z,12.35
2022-12-15T03:23:09.208Z,14.27
2022-12-15T03:25:35.691Z,12.63
2022-12-15T03:28:02.439Z,12.75
2022-12-15T03:30:29.021Z,13.23
2022-12-15T03:32:55.622Z,13.18
2022-12-15T03:35:22.165Z,13.43
2022-12-15T03:37:48.638Z,13.48
2022-12-15T03:40:16.290Z,13.38
2022-12-15T03:42:51.039Z,12.85
2022-12-15T03:45:23.654Z,12.93
2022-12-15T03:47:51.122Z,12.55
2022-12-15T03:50:20.589Z,13.73
2022-12-15T03:52:55.645Z,13.13
2022-12-15T03:55:23.391Z,12.85
2022-12-15T03:57:51.079Z,13.65
2022-12-15T04:00:19.690Z,14.65
2022-12-15T04:02:47.828Z,13.27
2022-12-15T04:05:26.727Z,12.77
2022-12-15T04:07:54.632Z,14.90
2022-12-15T04:10:22.196Z,14.18
2022-12-15T04:12:48.706Z,14.90
2022-12-15T04:15:15.734Z,12.90
2022-12-15T04:17:42.818Z,14.65
2022-12-15T04:20:09.871Z,14.90
2022-12-15T04:22:45.210Z,13.50
2022-12-15T04:28:17.361Z,15.40
2022-12-15T04:31:19.375Z,14.65
2022-12-15T04:34:08.466Z,14.13
2022-12-15T04:36:56.014Z,15.40
2022-12-15T04:39:41.733Z,15.98
2022-12-15T04:42:27.215Z,14.02
2022-12-15T04:45:20.749Z,14.93
2022-12-15T04:48:08.361Z,14.43
2022-12-15T04:50:53.674Z,16.17
2022-12-15T04:53:40.509Z,14.02
2022-12-15T04:56:33.424Z,15.05
2022-12-15T04:59:19.855Z,15.07
2022-12-15T05:02:05.266Z,15.50
2022-12-15T05:04:50.821Z,15.25
2022-12-15T05:07:36.405Z,14.23
2022-12-15T05:10:22.663Z,15.68
2022-12-15T05:13:07.892Z,14.40
2022-12-15T05:15:53.402Z,14.45
2022-12-15T05:18:39.370Z,14.43
2022-12-15T05:21:25.257Z,14.95
2022-12-15T05:24:10.209Z,13.93
2022-12-15T05:26:55.784Z,13.77
2022-12-15T05:29:41.278Z,14.93
2022-12-15T05:32:08.524Z,14.20
2022-12-15T05:34:36.808Z,13.07
2022-12-15T05:37:05.452Z,12.82
2022-12-15T05:39:32.030Z,14.80
2022-12-15T05:41:58.649Z,14.80
2022-12-15T05:44:26.016Z,13.43
2022-12-15T05:46:53.381Z,13.13
2022-12-15T05:49:20.709Z,14.73
2022-12-15T05:51:47.857Z,14.45
2022-12-15T05:54:19.137Z,15.07
2022-12-15T05:56:46.461Z,14.25
2022-12-15T05:59:13.395Z,14.00
2022-12-15T06:01:40.303Z,16.02
2022-12-15T06:04:07.620Z,15.32
2022-12-15T06:06:34.286Z,16.63
2022-12-15T06:09:00.723Z,15.27
2022-12-15T06:11:27.620Z,15.07
2022-12-15T06:13:55.155Z,15.48
2022-12-15T06:16:24.110Z,15.80
2022-12-15T06:18:54.368Z,17.63
2022-12-15T06:21:23.928Z,16.23
2022-12-15T06:23:50.643Z,16.05
2022-12-15T06:26:36.644Z,16.88
2022-12-15T06:29:06.058Z,15.80
2022-12-15T06:31:32.820Z,18.60
2022-12-15T06:34:02.373Z,17.05
2022-12-15T06:36:30.808Z,16.42
2022-12-15T06:39:02.489Z,17.48
2022-12-15T06:41:30.321Z,17.60
2022-12-15T06:43:57.815Z,17.40
2022-12-15T06:46:26.232Z,19.70
2022-12-15T06:48:53.698Z,18.98
2022-12-15T06:51:20.667Z,16.88
2022-12-15T06:53:54.263Z,19.17
2022-12-15T06:56:37.857Z,19.58
2022-12-15T06:59:06.489Z,18.85
2022-12-15T07:01:34.932Z,18.08
2022-12-15T07:04:04.565Z,17.63
2022-12-15T07:06:38.742Z,19.00
2022-12-15T07:09:08.519Z,19.23
2022-12-15T07:11:35.778Z,19.98
2022-12-15T07:14:02.454Z,19.25
2022-12-15T07:16:29.107Z,19.08
2022-12-15T07:18:55.698Z,20.13
2022-12-15T07:21:22.278Z,20.67
2022-12-15T07:23:57.272Z,19.42
2022-12-15T07:26:24.540Z,20.77
2022-12-15T07:28:52.993Z,20.85
2022-12-15T07:31:19.557Z,19.48
2022-12-15T07:33:48.537Z,20.83
2022-12-15T07:36:15.723Z,18.48
2022-12-15T07:38:42.220Z,17.13
2022-12-15T07:41:10.004Z,16.65
2022-12-15T07:43:37.600Z,16.85
2022-12-15T07:46:05.393Z,18.08
2022-12-15T07:48:32.823Z,16.17
2022-12-15T07:51:08.489Z,17.55
2022-12-15T07:53:37.996Z,16.65
2022-12-15T07:56:08.623Z,15.95
2022-12-15T07:58:36.972Z,15.85
2022-12-15T08:01:08.953Z,17.08
2022-12-15T08:03:38.043Z,16.92
2022-12-15T08:06:10.364Z,16.77
2022-12-15T08:08:37.470Z,14.90
2022-12-15T08:11:13.562Z,15.95
2022-12-15T08:18:57.082Z,15.95
2022-12-15T08:21:23.690Z,16.00
2022-12-15T08:23:50.642Z,16.27
2022-12-15T08:26:18.713Z,16.70
2022-12-15T08:28:46.113Z,16.73
2022-12-15T08:31:18.571Z,16.35
2022-12-15T08:33:46.402Z,16.73
2022-12-15T08:36:15.847Z,15.07
2022-12-15T08:38:43.879Z,15.93
2022-12-15T08:41:11.830Z,17.08
2022-12-15T08:43:44.000Z,18.02
2022-12-15T08:46:14.567Z,19.27
2022-12-15T08:48:41.328Z,15.75
2022-12-15T08:51:08.282Z,15.77
2022-12-15T08:53:34.820Z,16.88
2022-12-15T08:56:06.433Z,16.85
2022-12-15T08:58:33.500Z,18.90
2022-12-15T09:01:15.979Z,17.27
2022-12-15T09:03:46.657Z,16.63
2022-12-15T09:06:16.405Z,17.00
2022-12-15T09:08:43.551Z,16.70
2022-12-15T09:11:15.225Z,16.63
2022-12-15T09:13:41.770Z,18.33
2022-12-15T09:16:16.131Z,19.45
2022-12-15T09:18:44.853Z,19.02
2022-12-15T09:21:13.562Z,18.75
2022-12-15T09:23:40.988Z,19.88
2022-12-15T09:26:14.243Z,19.48
2022-12-15T09:28:41.482Z,21.15
2022-12-15T09:31:16.629Z,20.75
2022-12-15T09:33:44.245Z,20.45
2022-12-15T09:36:13.093Z,20.75
2022-12-15T09:38:41.153Z,19.55
2022-12-15T09:41:13.783Z,18.15
2022-12-15T09:44:07.260Z,20.30
2022-12-15T09:46:34.697Z,23.00
2022-12-15T09:49:05.775Z,22.20
2022-12-15T09:51:39.132Z,20.85
2022-12-15T09:54:06.929Z,22.58
2022-12-15T09:56:43.157Z,22.58
2022-12-15T09:59:28.343Z,22.42
2022-12-15T10:02:32.719Z,21.92
2022-12-15T10:05:22.674Z,21.48
2022-12-15T10:07:51.403Z,22.10
2022-12-15T10:10:32.824Z,22.08
2022-12-15T10:13:07.563Z,22.52
2022-12-15T10:16:06.060Z,22.02
2022-12-15T10:18:47.211Z,23.95
2022-12-15T10:21:16.953Z,21.80
2022-12-15T10:23:43.670Z,22.02
2022-12-15T10:26:24.030Z,23.85
2022-12-15T10:28:59.268Z,23.75
2022-12-15T10:31:54.117Z,23.08
2022-12-15T10:36:53.653Z,21.42
2022-12-15T10:39:21.086Z,22.13
2022-12-15T10:42:23.859Z,23.35
2022-12-15T10:44:54.047Z,24.23
2022-12-15T10:47:24.369Z,24.50
2022-12-15T10:49:52.319Z,23.10
2022-12-15T10:52:32.480Z,24.08
2022-12-15T10:54:58.997Z,22.42
2022-12-15T10:57:31.969Z,23.98
2022-12-15T11:00:27.969Z,22.42
2022-12-15T11:02:55.222Z,22.48
2022-12-15T11:05:22.513Z,23.45
2022-12-15T11:07:52.175Z,23.85
2022-12-15T11:10:27.926Z,23.33
2022-12-15T11:13:00.811Z,24.73
2022-12-15T11:15:39.272Z,23.52
2022-12-15T11:18:13.954Z,23.73
2022-12-15T11:20:48.520Z,25.27
2022-12-15T11:23:27.535Z,22.20
2022-12-15T11:26:07.160Z,25.25
2022-12-15T11:28:50.647Z,25.70
2022-12-15T11:31:27.439Z,23.73
2022-12-15T11:33:56.018Z,22.95
2022-12-15T11:36:56.807Z,23.75
2022-12-15T11:39:41.702Z,25.27
2022-12-15T11:42:31.744Z,26.67
2022-12-15T11:45:19.118Z,26.10
2022-12-15T11:47:53.233Z,25.55
2022-12-15T11:50:50.971Z,24.38
2022-12-15T11:53:36.672Z,24.20
2022-12-15T11:56:24.320Z,23.63
2022-12-15T11:59:00.788Z,24.48
2022-12-15T12:01:29.920Z,24.75
2022-12-15T12:04:18.795Z,25.73
2022-12-15T12:06:58.684Z,24.70
2022-12-15T12:09:32.014Z,23.88
2022-12-15T12:12:12.743Z,24.73
2022-12-15T12:15:01.536Z,23.30
2022-12-15T12:17:42.347Z,24.40
2022-12-15T12:20:50.261Z,26.42
2022-12-15T12:23:22.114Z,25.10
2022-12-15T12:26:15.851Z,24.33
2022-12-15T12:28:58.114Z,25.92
2022-12-15T12:32:05.068Z,25.48
2022-12-15T12:35:32.209Z,26.13
2022-12-15T12:38:03.877Z,25.85
2022-12-15T12:40:41.624Z,26.70
2022-12-15T12:43:22.592Z,25.75
2022-12-15T12:45:54.690Z,25.85
2022-12-15T12:48:48.425Z,26.00
2022-12-15T12:51:33.904Z,26.98
2022-12-15T12:54:02.456Z,25.90
2022-12-15T12:56:45.431Z,27.27
2022-12-15T12:59:30.278Z,25.17
2022-12-15T13:02:29.196Z,25.50
2022-12-15T13:05:29.330Z,27.30
2022-12-15T13:08:10.831Z,24.08
2022-12-15T13:10:57.015Z,24.00
2022-12-15T13:13:31.520Z,25.77
2022-12-15T13:16:07.199Z,24.88
2022-12-15T13:19:09.443Z,26.23
2022-12-15T13:21:42.283Z,24.85
2022-12-15T13:24:33.095Z,24.15
2022-12-15T13:27:10.312Z,22.13
2022-12-15T13:29:56.307Z,25.60
2022-12-15T13:32:54.253Z,23.67
2022-12-15T13:35:31.841Z,23.00
2022-12-15T13:38:11.294Z,23.42
2022-12-15T13:40:38.044Z,23.55
2022-12-15T13:43:05.620Z,22.90
2022-12-15T13:45:38.248Z,23.50
2022-12-15T13:48:55.234Z,23.15
2022-12-15T13:51:38.279Z,23.77
2022-12-15T13:54:19.463Z,22.85
2022-12-15T13:57:03.624Z,23.95
2022-12-15T13:59:46.775Z,24.25
2022-12-15T14:02:36.489Z,22.38
2022-12-15T14:05:14.432Z,23.70
2022-12-15T14:07:49.572Z,25.80
2022-12-15T14:10:28.383Z,26.10
2022-12-15T14:12:58.193Z,22.80
2022-12-15T14:15:31.829Z,22.23
2022-12-15T14:18:01.379Z,21.50
2022-12-15T14:20:39.167Z,21.08
2022-12-15T14:23:20.094Z,22.17
2022-12-15T14:26:02.983Z,21.67
2022-12-15T14:28:33.339Z,20.27
2022-12-15T14:31:12.697Z,22.73
2022-12-15T14:33:42.114Z,24.27
2022-12-15T14:36:12.244Z,20.70
2022-12-15T14:38:48.011Z,21.17
2022-12-15T14:41:26.963Z,22.17
2022-12-15T14:44:36.196Z,21.67
2022-12-15T14:46:47.943Z,22.55
2022-12-15T14:49:24.196Z,21.38
2022-12-15T14:51:57.507Z,21.80
2022-12-15T14:54:32.780Z,19.17
2022-12-15T14:57:22.526Z,21.17
2022-12-15T14:59:51.199Z,21.30
2022-12-15T15:02:29.078Z,20.48
2022-12-15T15:05:05.092Z,22.08
2022-12-15T15:07:33.081Z,23.40
2022-12-15T15:10:01.990Z,23.65
2022-12-15T15:15:25.649Z,22.52
2022-12-15T15:17:55.232Z,24.67
2022-12-15T15:20:29.121Z,23.80
2022-12-15T15:23:08.065Z,23.17
2022-12-15T15:25:41.218Z,23.15
2022-12-15T15:28:17.366Z,23.15
2022-12-15T15:30:56.512Z,24.38
2022-12-15T15:33:25.061Z,24.92
2022-12-15T15:36:10.114Z,23.98
2022-12-15T15:38:41.687Z,25.05
2022-12-15T15:41:15.070Z,25.42
2022-12-15T15:43:41.674Z,25.23
2022-12-15T15:46:19.030Z,24.75
2022-12-15T15:48:50.575Z,23.33
2022-12-15T15:51:17.768Z,23.45
2022-12-15T15:53:44.844Z,26.85
2022-12-15T15:56:15.243Z,25.38
2022-12-15T15:58:43.665Z,24.58
2022-12-15T16:01:13.317Z,25.92
2022-12-15T16:03:41.223Z,25.08
2022-12-15T16:06:18.531Z,25.55
2022-12-15T16:08:46.520Z,26.23
2022-12-15T16:11:13.019Z,23.83
2022-12-15T16:13:39.443Z,25.05
2022-12-15T16:16:06.773Z,24.92
2022-12-15T16:18:33.833Z,26.40
2022-12-15T16:21:00.696Z,26.40
2022-12-15T16:23:29.186Z,25.95
2022-12-15T16:26:00.232Z,25.85
2022-12-15T16:28:32.723Z,24.67
2022-12-15T16:30:59.953Z,24.98
2022-12-15T16:33:27.210Z,25.00
2022-12-15T16:35:54.113Z,23.05
2022-12-15T16:38:25.670Z,23.85
2022-12-15T16:40:52.456Z,22.67
2022-12-15T16:43:22.037Z,23.35
2022-12-15T16:45:50.899Z,24.88
2022-12-15T16:48:17.944Z,24.42
2022-12-15T16:50:50.379Z,23.17
2022-12-15T16:53:31.609Z,22.45
2022-12-15T16:56:02.742Z,22.70
2022-12-15T16:58:31.177Z,22.30
2022-12-15T17:00:59.535Z,22.17
2022-12-15T17:03:28.814Z,23.85
2022-12-15T17:05:58.749Z,22.95
2022-12-15T17:08:52.988Z,21.67
2022-12-15T17:11:24.011Z,21.02
2022-12-15T17:13:52.671Z,20.55
2022-12-15T17:16:21.933Z,21.58
2022-12-15T17:18:50.160Z,23.23
2022-12-15T17:21:22.010Z,24.15
2022-12-15T17:23:52.491Z,29.10
2022-12-15T17:26:30.607Z,29.55
2022-12-15T17:29:06.801Z,25.58
2022-12-15T17:31:36.002Z,26.70
2022-12-15T17:34:39.850Z,28.88
2022-12-15T17:37:11.088Z,23.58
2022-12-15T17:39:37.602Z,22.67
2022-12-15T17:42:15.194Z,23.10
2022-12-15T17:44:42.989Z,24.92
2022-12-15T17:47:10.175Z,23.60
2022-12-15T17:49:38.824Z,22.63
2022-12-15T17:52:28.488Z,20.55
2022-12-15T17:54:57.158Z,21.98
2022-12-15T17:57:23.946Z,20.98
2022-12-15T17:59:50.383Z,23.20
2022-12-15T18:02:17.269Z,23.23
2022-12-15T18:04:44.546Z,23.40
2022-12-15T18:07:17.287Z,22.35
2022-12-15T18:09:44.244Z,24.13
2022-12-15T18:12:22.901Z,20.98
2022-12-15T18:14:50.052Z,24.35
2022-12-15T18:17:16.792Z,26.73
2022-12-15T18:19:43.202Z,8.02
2022-12-15T18:22:22.288Z,18.60
2022-12-15T18:24:50.986Z,30.92
2022-12-15T18:27:23.853Z,26.67
2022-12-15T18:29:50.587Z,23.25
2022-12-15T18:32:18.253Z,23.60
2022-12-15T18:34:45.074Z,25.67
2022-12-15T18:37:20.119Z,26.90
2022-12-15T18:39:47.131Z,28.60
2022-12-15T18:42:15.977Z,25.63
2022-12-15T18:44:48.061Z,26.83
2022-12-15T18:47:23.925Z,26.13
2022-12-15T18:49:50.875Z,29.10
2022-12-15T18:52:21.502Z,29.70
2022-12-15T18:54:50.172Z,27.85
2022-12-15T18:57:31.804Z,28.70
2022-12-15T19:00:25.908Z,25.38
2022-12-15T19:02:54.780Z,25.70
2022-12-15T19:08:09.992Z,23.88
2022-12-15T19:10:41.984Z,21.77
2022-12-15T19:13:13.722Z,24.17
2022-12-15T19:15:40.400Z,23.95
2022-12-15T19:18:48.379Z,22.25
2022-12-15T19:21:48.415Z,23.73
2022-12-15T19:24:44.600Z,23.52
2022-12-15T19:27:12.776Z,21.95
2022-12-15T19:29:40.743Z,21.60
2022-12-15T19:32:08.245Z,22.67
2022-12-15T19:34:35.614Z,20.88
2022-12-15T19:37:03.113Z,22.77
2022-12-15T19:39:32.558Z,21.77
2022-12-15T19:41:59.253Z,21.05
2022-12-15T19:44:26.206Z,23.05
2022-12-15T19:46:52.687Z,22.50
2022-12-15T19:49:19.441Z,23.02
2022-12-15T19:51:46.256Z,20.80
2022-12-15T19:54:17.862Z,22.38
2022-12-15T19:56:44.397Z,21.70
2022-12-15T19:59:22.407Z,21.60
2022-12-15T20:01:51.691Z,22.90
2022-12-15T20:04:24.021Z,20.65
2022-12-15T20:06:51.204Z,22.15
2022-12-15T20:09:18.612Z,22.85
2022-12-15T20:11:46.353Z,23.23
2022-12-15T20:14:17.677Z,23.10
2022-12-15T20:16:44.809Z,23.20
2022-12-15T20:19:11.613Z,22.88
2022-12-15T20:21:40.318Z,23.77
2022-12-15T20:24:12.107Z,21.80
2022-12-15T20:26:39.512Z,22.85
2022-12-15T20:29:21.177Z,21.40
2022-12-15T20:31:47.908Z,21.40
2022-12-15T20:34:14.398Z,20.40
2022-12-15T20:36:42.560Z,22.17
2022-12-15T20:39:29.297Z,21.45
2022-12-15T20:41:56.939Z,22.27
2022-12-15T20:44:24.383Z,25.33
2022-12-15T20:46:51.609Z,31.00
2022-12-15T20:49:20.477Z,27.33
2022-12-15T20:54:20.486Z,30.98
2022-12-15T20:56:48.902Z,29.00
2022-12-15T20:59:17.030Z,29.20
2022-12-15T21:01:44.662Z,24.70
2022-12-15T21:04:27.913Z,26.92
2022-12-15T21:06:55.471Z,32.10
2022-12-15T21:09:22.895Z,28.73
2022-12-15T21:11:51.837Z,29.40
2022-12-15T21:16:46.810Z,26.13
2022-12-15T21:19:22.165Z,24.90
2022-12-15T21:21:55.220Z,24.27
2022-12-15T21:24:26.334Z,21.55
2022-12-15T21:26:53.697Z,21.48
2022-12-15T21:29:23.930Z,22.13
2022-12-15T21:31:50.485Z,22.38
2022-12-15T21:34:17.108Z,22.20
2022-12-15T21:36:46.760Z,21.65
2022-12-15T21:39:22.430Z,21.45
2022-12-15T21:41:49.127Z,20.73
2022-12-15T21:44:18.205Z,21.10
2022-12-15T21:46:44.719Z,19.95
2022-12-15T21:49:17.368Z,20.80
2022-12-15T21:52:02.141Z,22.40
2022-12-15T21:54:34.896Z,19.75
2022-12-15T21:57:02.617Z,19.77
2022-12-15T21:59:31.788Z,21.05
2022-12-15T22:02:02.452Z,20.02
2022-12-15T22:04:33.068Z,20.52
2022-12-15T22:07:00.257Z,20.63
2022-12-15T22:09:27.066Z,21.83
2022-12-15T22:11:55.849Z,20.60
2022-12-15T22:14:28.634Z,21.52
2022-12-15T22:16:55.951Z,19.70
2022-12-15T22:19:23.188Z,22.45
2022-12-15T22:21:50.372Z,23.13
2022-12-15T22:24:16.964Z,23.98
2022-12-15T22:26:44.186Z,21.88
2022-12-15T22:29:15.698Z,25.67
2022-12-15T22:31:42.564Z,25.30
2022-12-15T22:34:19.589Z,24.27
2022-12-15T22:36:46.238Z,26.35
2022-12-15T22:39:15.107Z,24.38
2022-12-15T22:44:27.344Z,24.45
2022-12-15T22:46:57.947Z,25.98
2022-12-15T22:49:30.617Z,24.92
2022-12-15T22:51:57.039Z,24.25
2022-12-15T22:54:25.878Z,23.88
2022-12-15T22:56:58.546Z,20.95
2022-12-15T22:59:29.540Z,18.80
2022-12-15T23:01:56.749Z,21.02
2022-12-15T23:04:24.632Z,20.20
2022-12-15T23:06:51.703Z,17.65
2022-12-15T23:09:18.426Z,20.00
2022-12-15T23:11:48.446Z,20.20
2022-12-15T23:14:16.993Z,20.38
2022-12-15T23:16:45.479Z,17.90
2022-12-15T23:19:24.087Z,19.38
2022-12-15T23:21:51.722Z,19.00
2022-12-15T23:24:18.213Z,18.50
2022-12-15T23:26:44.862Z,19.25
2022-12-15T23:29:11.336Z,18.27
2022-12-15T23:31:37.846Z,18.65
2022-12-15T23:34:05.203Z,20.05
2022-12-15T23:36:31.661Z,19.08
2022-12-15T23:38:58.345Z,18.33
2022-12-15T23:41:25.135Z,17.63
2022-12-15T23:43:51.558Z,18.98
2022-12-15T23:46:18.888Z,17.20
2022-12-15T23:48:45.597Z,18.00
2022-12-15T23:51:14.801Z,17.92
2022-12-15T23:53:42.279Z,18.92
2022-12-15T23:56:12.263Z,18.67
2022-12-15T23:58:40.622Z,19.70
